createdAt,value
2022-08-07T00:00:55.568Z,101349.34
2022-08-07T00:03:36.911Z,101347.80
2022-08-07T00:06:05.099Z,101346.41
2022-08-07T00:08:33.471Z,101348.31
2022-08-07T00:11:06.474Z,101348.65
2022-08-07T00:13:44.892Z,101348.14
2022-08-07T00:16:17.406Z,101344.71
2022-08-07T00:18:49.633Z,101349.34
2022-08-07T00:21:57.334Z,101353.31
2022-08-07T00:24:06.130Z,101352.80
2022-08-07T00:26:58.639Z,101357.27
2022-08-07T00:29:34.281Z,101357.63
2022-08-07T00:32:06.991Z,101359.17
2022-08-07T00:34:35.525Z,101359.01
2022-08-07T00:37:05.192Z,101358.66
2022-08-07T00:39:34.941Z,101359.54
2022-08-07T00:42:05.219Z,101365.88
2022-08-07T00:44:34.922Z,101364.16
2022-08-07T00:47:15.594Z,101367.76
2022-08-07T00:50:19.654Z,101369.65
2022-08-07T00:52:51.513Z,101370.83
2022-08-07T00:55:46.590Z,101369.79
2022-08-07T00:58:09.012Z,101371.16
2022-08-07T01:00:37.134Z,101371.33
2022-08-07T01:03:05.219Z,101371.67
2022-08-07T01:05:36.560Z,101370.13
2022-08-07T01:08:06.214Z,101378.34
2022-08-07T01:10:39.385Z,101375.92
2022-08-07T01:13:16.367Z,101372.66
2022-08-07T01:16:01.189Z,101374.20
2022-08-07T01:18:34.914Z,101372.30
2022-08-07T01:21:22.748Z,101368.85
2022-08-07T01:23:55.351Z,101366.95
2022-08-07T01:26:26.088Z,101370.86
2022-08-07T01:28:55.162Z,101371.89
2022-08-07T01:31:30.025Z,101368.11
2022-08-07T01:34:10.499Z,101367.42
2022-08-07T01:36:40.426Z,101367.23
2022-08-07T01:39:10.255Z,101370.80
2022-08-07T01:42:07.359Z,101372.66
2022-08-07T01:44:28.768Z,101374.67
2022-08-07T01:46:57.587Z,101378.95
2022-08-07T01:49:29.134Z,101375.16
2022-08-07T01:52:04.921Z,101375.14
2022-08-07T01:54:37.590Z,101371.84
2022-08-07T01:57:26.671Z,101366.67
2022-08-07T02:00:12.960Z,101368.70
2022-08-07T02:03:18.136Z,101367.98
2022-08-07T02:05:59.982Z,101372.73
2022-08-07T02:08:31.032Z,101369.62
2022-08-07T02:11:00.922Z,101373.16
2022-08-07T02:13:56.766Z,101370.73
2022-08-07T02:16:28.783Z,101370.02
2022-08-07T02:19:05.534Z,101368.61
2022-08-07T02:21:58.726Z,101364.98
2022-08-07T02:24:30.050Z,101364.95
2022-08-07T02:27:02.447Z,101366.10
2022-08-07T02:29:32.455Z,101364.52
2022-08-07T02:32:04.388Z,101364.85
2022-08-07T02:34:34.311Z,101364.48
2022-08-07T02:37:08.728Z,101363.95
2022-08-07T02:39:43.719Z,101361.52
2022-08-07T02:42:30.568Z,101365.89
2022-08-07T02:45:07.208Z,101366.71
2022-08-07T02:47:49.084Z,101372.63
2022-08-07T02:50:17.619Z,101371.44
2022-08-07T02:53:06.528Z,101370.20
2022-08-07T02:56:03.371Z,101371.18
2022-08-07T02:58:33.946Z,101372.16
2022-08-07T03:01:03.537Z,101375.89
2022-08-07T03:03:49.540Z,101377.06
2022-08-07T03:06:32.075Z,101374.98
2022-08-07T03:09:03.086Z,101374.25
2022-08-07T03:11:38.697Z,101375.56
2022-08-07T03:14:07.670Z,101378.08
2022-08-07T03:16:36.062Z,101376.86
2022-08-07T03:19:06.799Z,101375.30
2022-08-07T03:21:37.311Z,101377.65
2022-08-07T03:24:20.465Z,101376.42
2022-08-07T03:26:58.977Z,101374.33
2022-08-07T03:29:37.774Z,101374.98
2022-08-07T03:32:13.435Z,101374.12
2022-08-07T03:34:47.419Z,101376.31
2022-08-07T03:37:45.874Z,101381.06
2022-08-07T03:40:16.894Z,101377.31
2022-08-07T03:42:45.377Z,101377.46
2022-08-07T03:45:30.031Z,101378.83
2022-08-07T03:47:59.818Z,101385.83
2022-08-07T03:50:28.984Z,101380.70
2022-08-07T03:53:01.452Z,101383.42
2022-08-07T03:55:52.919Z,101384.46
2022-08-07T03:59:05.452Z,101385.16
2022-08-07T04:01:13.892Z,101385.69
2022-08-07T04:03:49.766Z,101387.91
2022-08-07T04:06:36.254Z,101390.98
2022-08-07T04:09:08.462Z,101393.55
2022-08-07T04:12:25.107Z,101398.88
2022-08-07T04:14:43.950Z,101399.61
2022-08-07T04:17:19.928Z,101403.55
2022-08-07T04:19:53.990Z,101400.20
2022-08-07T04:22:28.995Z,101405.05
2022-08-07T04:25:01.198Z,101403.24
2022-08-07T04:27:35.420Z,101406.05
2022-08-07T04:30:11.722Z,101408.69
2022-08-07T04:32:44.766Z,101413.05
2022-08-07T04:35:15.937Z,101413.96
2022-08-07T04:38:02.850Z,101415.42
2022-08-07T04:40:32.301Z,101422.02
2022-08-07T04:43:01.856Z,101419.73
2022-08-07T04:46:01.064Z,101424.05
2022-08-07T04:48:51.035Z,101423.96
2022-08-07T04:51:28.813Z,101425.73
2022-08-07T04:54:08.497Z,101427.84
2022-08-07T04:58:16.043Z,101428.06
2022-08-07T05:00:13.130Z,101431.88
2022-08-07T05:03:17.081Z,101437.21
2022-08-07T05:06:19.699Z,101438.98
2022-08-07T05:09:17.069Z,101438.83
2022-08-07T05:12:10.493Z,101444.67
2022-08-07T05:14:54.301Z,101442.86
2022-08-07T05:17:52.968Z,101449.42
2022-08-07T05:20:26.914Z,101451.36
2022-08-07T05:23:00.256Z,101449.37
2022-08-07T05:25:54.452Z,101452.52
2022-08-07T05:28:23.356Z,101456.31
2022-08-07T05:30:57.137Z,101456.55
2022-08-07T05:33:27.665Z,101459.33
2022-08-07T05:35:56.901Z,101458.67
2022-08-07T05:38:59.849Z,101455.96
2022-08-07T05:41:16.817Z,101455.48
2022-08-07T05:44:12.268Z,101462.54
2022-08-07T05:46:38.534Z,101459.98
2022-08-07T05:49:13.080Z,101463.59
2022-08-07T05:51:46.248Z,101459.84
2022-08-07T05:54:30.785Z,101460.70
2022-08-07T05:57:06.896Z,101460.89
2022-08-07T05:59:58.073Z,101463.12
2022-08-07T06:02:30.682Z,101462.27
2022-08-07T06:05:15.449Z,101462.59
2022-08-07T06:08:09.094Z,101457.79
2022-08-07T06:10:42.594Z,101457.48
2022-08-07T06:13:13.571Z,101457.80
2022-08-07T06:15:45.746Z,101458.48
2022-08-07T06:18:18.880Z,101462.06
2022-08-07T06:20:50.496Z,101457.41
2022-08-07T06:24:36.858Z,101457.55
2022-08-07T06:26:27.427Z,101456.48
2022-08-07T06:29:06.538Z,101456.95
2022-08-07T06:31:46.580Z,101455.71
2022-08-07T06:34:20.430Z,101460.48
2022-08-07T06:36:51.824Z,101461.30
2022-08-07T06:40:17.601Z,101468.14
2022-08-07T06:42:34.836Z,101464.34
2022-08-07T06:45:07.361Z,101462.75
2022-08-07T06:47:57.049Z,101468.41
2022-08-07T06:50:26.763Z,101470.23
2022-08-07T06:52:56.760Z,101472.57
2022-08-07T06:55:53.432Z,101479.05
2022-08-07T06:58:21.309Z,101481.21
2022-08-07T07:00:52.982Z,101482.86
2022-08-07T07:03:39.633Z,101481.58
2022-08-07T07:06:11.415Z,101486.81
2022-08-07T07:08:39.863Z,101487.26
2022-08-07T07:12:07.646Z,101488.56
2022-08-07T07:14:04.208Z,101485.94
2022-08-07T07:16:49.615Z,101485.20
2022-08-07T07:19:55.948Z,101482.41
2022-08-07T07:22:39.754Z,101481.70
2022-08-07T07:26:33.920Z,101476.63
2022-08-07T07:28:29.696Z,101475.83
2022-08-07T07:31:17.338Z,101474.41
2022-08-07T07:33:57.238Z,101469.02
2022-08-07T07:36:34.288Z,101462.38
2022-08-07T07:39:04.911Z,101464.73
2022-08-07T07:42:02.136Z,101464.32
2022-08-07T07:44:26.495Z,101467.83
2022-08-07T07:47:01.234Z,101471.13
2022-08-07T07:50:35.973Z,101470.85
2022-08-07T07:52:31.586Z,101465.56
2022-08-07T07:55:01.131Z,101465.54
2022-08-07T07:57:52.133Z,101470.48
2022-08-07T08:00:29.629Z,101470.13
2022-08-07T08:03:08.696Z,101468.98
2022-08-07T08:05:42.899Z,101467.54
2022-08-07T08:08:37.017Z,101465.41
2022-08-07T08:11:16.256Z,101466.67
2022-08-07T08:13:57.808Z,101465.81
2022-08-07T08:16:39.775Z,101464.16
2022-08-07T08:19:17.613Z,101465.70
2022-08-07T08:22:20.184Z,101462.64
2022-08-07T08:25:24.808Z,101456.58
2022-08-07T08:28:05.947Z,101462.20
2022-08-07T08:30:37.461Z,101463.67
2022-08-07T08:33:20.656Z,101466.36
2022-08-07T08:36:12.817Z,101472.08
2022-08-07T08:38:49.941Z,101467.28
2022-08-07T08:41:31.559Z,101469.48
2022-08-07T08:44:48.299Z,101469.80
2022-08-07T08:47:57.576Z,101469.00
2022-08-07T08:50:40.550Z,101467.63
2022-08-07T08:53:26.554Z,101469.13
2022-08-07T08:56:29.042Z,101465.95
2022-08-07T08:59:12.717Z,101466.35
2022-08-07T09:01:59.772Z,101458.95
2022-08-07T09:05:14.666Z,101457.94
2022-08-07T09:07:58.210Z,101460.86
2022-08-07T09:11:03.425Z,101460.29
2022-08-07T09:13:59.242Z,101464.58
2022-08-07T09:16:47.600Z,101462.61
2022-08-07T09:19:51.441Z,101459.77
2022-08-07T09:24:30.995Z,101456.95
2022-08-07T09:25:53.423Z,101453.18
2022-08-07T09:30:05.931Z,101453.33
2022-08-07T09:31:49.431Z,101447.91
2022-08-07T09:34:27.250Z,101448.34
2022-08-07T09:37:07.619Z,101443.95
2022-08-07T09:39:54.533Z,101440.66
2022-08-07T09:42:51.328Z,101443.38
2022-08-07T09:47:51.765Z,101440.22
2022-08-07T09:50:01.160Z,101438.95
2022-08-07T09:52:53.994Z,101432.05
2022-08-07T09:56:03.913Z,101433.19
2022-08-07T09:59:07.630Z,101427.58
2022-08-07T10:02:05.646Z,101422.16
2022-08-07T10:05:12.586Z,101425.38
2022-08-07T10:08:10.378Z,101421.50
2022-08-07T10:11:17.177Z,101421.96
2022-08-07T10:14:22.720Z,101423.73
2022-08-07T10:17:13.419Z,101425.25
2022-08-07T10:20:37.165Z,101422.04
2022-08-07T10:24:05.311Z,101417.56
2022-08-07T10:26:53.482Z,101416.77
2022-08-07T10:29:45.887Z,101415.39
2022-08-07T10:32:52.463Z,101412.78
2022-08-07T10:35:55.673Z,101409.84
2022-08-07T10:38:36.169Z,101409.61
2022-08-07T10:42:00.369Z,101410.46
2022-08-07T10:44:50.099Z,101403.70
2022-08-07T10:47:52.854Z,101402.90
2022-08-07T10:50:58.460Z,101405.12
2022-08-07T10:54:14.848Z,101404.79
2022-08-07T10:57:03.583Z,101400.75
2022-08-07T11:00:55.894Z,101396.84
2022-08-07T11:03:52.550Z,101385.40
2022-08-07T11:06:41.920Z,101382.37
2022-08-07T11:10:09.563Z,101383.28
2022-08-07T11:12:45.497Z,101384.61
2022-08-07T11:15:26.278Z,101379.67
2022-08-07T11:18:27.576Z,101381.61
2022-08-07T11:21:10.355Z,101385.58
2022-08-07T11:24:15.100Z,101389.87
2022-08-07T11:27:01.783Z,101386.66
2022-08-07T11:29:42.943Z,101386.10
2022-08-07T11:32:25.648Z,101379.23
2022-08-07T11:34:58.727Z,101372.06
2022-08-07T11:37:38.710Z,101365.43
2022-08-07T11:40:51.729Z,101360.98
2022-08-07T11:44:10.779Z,101366.28
2022-08-07T11:47:12.662Z,101360.41
2022-08-07T11:50:32.704Z,101361.13
2022-08-07T11:53:27.869Z,101352.23
2022-08-07T11:57:02.056Z,101353.87
2022-08-07T12:00:11.373Z,101355.26
2022-08-07T12:03:41.482Z,101347.96
2022-08-07T12:07:01.042Z,101349.77
2022-08-07T12:10:17.153Z,101352.70
2022-08-07T12:13:11.562Z,101352.13
2022-08-07T12:16:06.249Z,101344.86
2022-08-07T12:19:14.629Z,101343.74
2022-08-07T12:22:39.593Z,101342.39
2022-08-07T12:26:03.106Z,101332.52
2022-08-07T12:29:01.669Z,101328.38
2022-08-07T12:32:15.250Z,101322.89
2022-08-07T12:35:36.323Z,101330.30
2022-08-07T12:38:57.503Z,101328.43
2022-08-07T12:42:16.355Z,101328.92
2022-08-07T12:45:04.472Z,101333.43
2022-08-07T12:48:27.717Z,101330.38
2022-08-07T12:52:12.035Z,101324.17
2022-08-07T12:55:16.443Z,101315.89
2022-08-07T12:58:01.349Z,101316.07
2022-08-07T13:01:18.959Z,101309.65
2022-08-07T13:04:02.741Z,101313.66
2022-08-07T13:07:02.260Z,101310.36
2022-08-07T13:10:28.564Z,101315.04
2022-08-07T13:13:51.115Z,101311.98
2022-08-07T13:17:07.729Z,101307.09
2022-08-07T13:20:30.953Z,101304.48
2022-08-07T13:24:02.052Z,101300.86
2022-08-07T13:26:16.060Z,101301.37
2022-08-07T13:29:15.197Z,101293.95
2022-08-07T13:31:57.570Z,101290.34
2022-08-07T13:34:53.057Z,101289.42
2022-08-07T13:37:59.173Z,101285.02
2022-08-07T13:40:49.555Z,101286.39
2022-08-07T13:43:57.528Z,101279.55
2022-08-07T13:46:48.868Z,101273.61
2022-08-07T13:50:34.309Z,101273.08
2022-08-07T13:52:32.271Z,101272.06
2022-08-07T13:55:10.769Z,101280.29
2022-08-07T13:57:59.125Z,101277.90
2022-08-07T14:00:50.441Z,101277.20
2022-08-07T14:04:07.311Z,101276.25
2022-08-07T14:06:23.093Z,101272.23
2022-08-07T14:10:00.482Z,101266.30
2022-08-07T14:12:10.334Z,101264.30
2022-08-07T14:14:44.161Z,101265.31
2022-08-07T14:18:13.062Z,101261.67
2022-08-07T14:20:43.382Z,101258.60
2022-08-07T14:23:31.498Z,101259.13
2022-08-07T14:26:30.621Z,101253.45
2022-08-07T14:30:05.011Z,101252.35
2022-08-07T14:32:28.193Z,101245.27
2022-08-07T14:35:07.026Z,101243.86
2022-08-07T14:37:39.969Z,101244.70
2022-08-07T14:40:26.251Z,101240.48
2022-08-07T14:46:12.452Z,101234.09
2022-08-07T14:48:48.471Z,101230.61
2022-08-07T14:52:03.690Z,101229.05
2022-08-07T14:57:55.227Z,101228.08
2022-08-07T15:00:30.288Z,101226.66
2022-08-07T15:05:55.214Z,101223.59
2022-08-07T15:08:47.550Z,101219.70
2022-08-07T15:12:01.242Z,101219.68
2022-08-07T15:14:36.064Z,101217.48
2022-08-07T15:17:54.974Z,101220.77
2022-08-07T15:21:44.151Z,101219.02
2022-08-07T15:25:17.639Z,101212.39
2022-08-07T15:28:34.412Z,101207.70
2022-08-07T15:32:01.767Z,101202.77
2022-08-07T15:34:18.600Z,101199.80
2022-08-07T15:37:04.055Z,101203.77
2022-08-07T15:39:57.438Z,101200.48
2022-08-07T15:45:57.321Z,101195.13
2022-08-07T15:49:03.464Z,101194.04
2022-08-07T15:54:47.596Z,101191.05
2022-08-07T15:57:39.906Z,101189.72
2022-08-07T16:01:20.156Z,101188.35
2022-08-07T16:04:34.971Z,101186.05
2022-08-07T16:08:33.055Z,101185.39
2022-08-07T16:11:55.174Z,101181.28
2022-08-07T16:15:58.202Z,101182.84
2022-08-07T16:19:16.732Z,101179.96
2022-08-07T16:22:05.070Z,101179.23
2022-08-07T16:25:23.431Z,101179.73
2022-08-07T16:32:34.605Z,101174.37
2022-08-07T16:35:58.387Z,101173.41
2022-08-07T16:39:49.165Z,101173.64
2022-08-07T16:44:04.056Z,101169.98
2022-08-07T16:47:38.682Z,101173.02
2022-08-07T16:52:01.722Z,101176.17
2022-08-07T16:55:13.289Z,101176.09
2022-08-07T16:59:10.198Z,101180.14
2022-08-07T17:02:52.894Z,101179.51
2022-08-07T17:06:29.849Z,101182.77
2022-08-07T17:10:32.791Z,101182.92
2022-08-07T17:14:19.218Z,101181.34
2022-08-07T17:17:46.192Z,101183.41
2022-08-07T17:28:38.789Z,101195.86
2022-08-07T17:32:52.420Z,101190.71
2022-08-07T17:46:35.204Z,101199.62
2022-08-07T17:50:16.487Z,101204.30
2022-08-07T17:54:00.188Z,101204.60
2022-08-07T18:12:06.990Z,101205.80
2022-08-07T18:15:53.903Z,101205.84
2022-08-07T18:38:53.718Z,101211.43
2022-08-07T18:41:16.933Z,101217.94
2022-08-07T18:45:40.171Z,101221.61
2022-08-07T18:50:05.547Z,101220.63
2022-08-07T18:52:52.772Z,101224.77
2022-08-07T18:56:32.167Z,101228.30
2022-08-07T18:59:59.528Z,101228.65
2022-08-07T19:03:44.904Z,101230.52
2022-08-07T19:07:34.553Z,101234.14
2022-08-07T19:11:35.703Z,101234.30
2022-08-07T19:16:02.327Z,101235.96
2022-08-07T19:19:00.890Z,101236.61
2022-08-07T19:22:32.317Z,101239.44
2022-08-07T19:26:22.967Z,101237.46
2022-08-07T19:31:06.375Z,101237.05
2022-08-07T19:33:19.314Z,101237.98
2022-08-07T19:37:17.067Z,101239.42
2022-08-07T19:40:49.309Z,101237.61
2022-08-07T19:54:56.176Z,101250.70
2022-08-07T19:58:13.378Z,101252.29
2022-08-07T20:01:11.368Z,101250.27
2022-08-07T20:04:31.569Z,101247.73
2022-08-07T20:08:06.329Z,101247.91
2022-08-07T20:12:23.426Z,101248.78
2022-08-07T20:15:00.529Z,101248.29
2022-08-07T20:18:14.787Z,101247.27
2022-08-07T20:21:29.199Z,101246.11
2022-08-07T20:25:03.581Z,101250.58
2022-08-07T20:28:34.972Z,101249.91
2022-08-07T20:32:11.483Z,101254.38
2022-08-07T20:36:03.107Z,101251.33
2022-08-07T20:49:58.080Z,101246.38
2022-08-07T20:53:12.004Z,101247.23
2022-08-07T21:37:23.583Z,101249.16
2022-08-07T21:40:51.169Z,101251.88
2022-08-07T21:44:28.447Z,101252.70
2022-08-07T21:47:50.310Z,101251.16
2022-08-07T21:51:08.356Z,101252.02
2022-08-07T21:54:34.778Z,101253.20
2022-08-07T21:57:59.696Z,101259.02
2022-08-07T22:00:59.722Z,101252.86
2022-08-07T22:04:06.542Z,101247.88
2022-08-07T22:07:57.947Z,101253.34
2022-08-07T22:11:02.606Z,101258.81
2022-08-07T22:13:58.608Z,101256.23
2022-08-07T22:17:13.198Z,101257.95
2022-08-07T22:20:27.849Z,101256.06
2022-08-07T22:23:41.642Z,101259.13
2022-08-07T22:26:50.517Z,101258.61
2022-08-07T22:30:12.648Z,101254.84
2022-08-07T22:33:12.058Z,101253.27
2022-08-07T22:36:46.306Z,101256.16
2022-08-07T22:40:22.514Z,101255.30
2022-08-07T22:43:14.167Z,101254.59
2022-08-07T22:47:02.507Z,101254.59
2022-08-07T22:49:55.283Z,101256.29
2022-08-07T22:52:54.018Z,101257.81
2022-08-07T22:55:47.717Z,101259.35
2022-08-07T22:58:43.094Z,101262.25
2022-08-07T23:01:59.023Z,101262.77
2022-08-07T23:06:09.870Z,101265.14
2022-08-07T23:08:45.829Z,101268.38
2022-08-07T23:12:06.265Z,101270.06
2022-08-07T23:16:05.738Z,101266.30
2022-08-07T23:19:48.011Z,101265.59
2022-08-07T23:23:15.026Z,101266.93
2022-08-07T23:26:33.515Z,101269.48
2022-08-07T23:29:44.018Z,101274.58
2022-08-07T23:34:33.968Z,101273.55
2022-08-07T23:36:43.221Z,101276.78
2022-08-07T23:39:48.227Z,101272.81
2022-08-07T23:43:07.641Z,101273.84
2022-08-07T23:46:03.230Z,101273.65
2022-08-07T23:49:05.940Z,101276.23
2022-08-07T23:53:02.156Z,101278.42
2022-08-07T23:55:01.567Z,101278.05
2022-08-07T23:58:04.341Z,101278.89
